METAR AND TAF INFORMATION
METAR FOR EPWA
ADDS - METARS form results

(1922 UTC 31 May 2020)
Data provider http://aviationweather.gov/metar/data/
 
METAR text: EPWA 311900Z 01010KT CAVOK 19/07 Q1016 NOSIG
Conditions at: EPWA (WARSAW/OKECIE , PL) observed 1900 UTC 31 May 2020
Temperature: 19.0°C (66°F)
Dewpoint: 7.0°C (45°F) [RH = 46%]
Pressure (altimeter): 30.00 inches Hg (1016.0 mb)
Winds: from the N (10 degrees) at 12 MPH (10 knots; 5.1 m/s)
Visibility: 6 or more miles (10+ km)
Ceiling: ceiling and visibility are OK
Clouds: unknown
Weather: no significant weather observed at this time

METAR text: EPWA 311830Z 01010KT CAVOK 20/06 Q1015 NOSIG
Conditions at: EPWA (WARSAW/OKECIE , PL) observed 1830 UTC 31 May 2020
Temperature: 20.0°C (68°F)
Dewpoint: 6.0°C (43°F) [RH = 40%]
Pressure (altimeter): 29.97 inches Hg (1015.0 mb)
Winds: from the N (10 degrees) at 12 MPH (10 knots; 5.1 m/s)
Visibility: 6 or more miles (10+ km)
Ceiling: ceiling and visibility are OK
Clouds: unknown
Weather: no significant weather observed at this time

Forecast for: EPWA (WARSAW/OKECIE , PL)
Text: TAF EPWA 311730Z 3118/0118 02010KT CAVOK
Forecast period: 1800 UTC 31 May 2020 to 1800 UTC 01 June 2020
Forecast type: FROM: standard forecast or significant change
Winds: from the NNE (20 degrees) at 12 MPH (10 knots; 5.1 m/s)
Visibility: 6 or more miles 10+ km)
Ceiling: unknown
Clouds: missing
Weather: NSW  (no significant weather)
Text: PROB40
Forecast period: 0800 to 1500 UTC 01 June 2020
Forecast type: TEMPORARY: The following changes expected for less than half the time period
Winds: from the NNE (20 degrees) at 20 MPH (17 knots; 8.7 m/s)
gusting to 31 MPH (27 knots; 13.9 m/s)
Visibility: missing
Ceiling: unknown
Clouds: missing
Weather: no significant weather forecast for this period

 AIRPORT MAP

 RUNWAY INFORMATION
Runway 11 Runway length 9186 ft Runway width 164 ft
Runway elevation 361 ft Runway displaced threshold 0 ft Runway heading 115
Runway 29 Runway length 9186 ft Runway width 164 ft
Runway elevation 344 ft Runway displaced threshold 1640 ft Runway heading 295
Runway 15 Runway length 12106 ft Runway width 197 ft
Runway elevation 351 ft Runway displaced threshold 0 ft Runway heading 152
Runway 33 Runway length 12106 ft Runway width 197 ft
Runway elevation 351 ft Runway displaced threshold 0 ft Runway heading 332

 AIRPORT FREQUENCIES
Type APP Name WARSZAWA A Frequency 128.8 MHZ
Type ATIS Name ATIS Frequency 120.45 MHZ
Type CLD Name CLNC DEL Frequency 121.6 MHZ
Type DIR Name WARSZAWA D Frequency 129.375 MHZ
Type GND Name GND Frequency 121.9 MHZ
Type TWR Name TWR Frequency 118.3 MHZ

 AIRPORT NEAR NAVIGATION AIDS
Type VOR-DME Name Okecie Frequency 113400 KHZ
Type NDB Name Piaseczno Frequency 330 KHZ
Type NDB Name Warszawa Frequency 336 KHZ
Type NDB Name Warszawa Frequency 412 KHZ
Type VOR-DME Name Zaborowek Frequency 114900 KHZ



Powered by Virtual Airlines Manager [v2.6.2]